Home > Products > Valid Products > TAF

000
FTUS42 KMHX 010925 AAA
TAFEWN
TAF AMD
KEWN 010925Z 0109/0206 04010KT P6SM SKC=



000
FTUS42 KMHX 010539
TAFEWN
TAF
KEWN 010539Z 0106/0206 35010KT P6SM SKC=



000
FTUS42 KMHX 010539
TAFEWN
TAF
KEWN 010539Z 0106/0206 35010KT P6SM SKC=



000
FTUS42 KMHX 010117 AAA
TAFEWN
TAF AMD
KEWN 010117Z 0101/0124 22010KT P6SM SKC
     FM010400 25005KT P6SM SKC
     FM010700 30005KT P6SM SKC
     FM011200 02010KT P6SM SKC=



000
FTUS42 KMHX 312321
TAFEWN
TAF
KEWN 312321Z 0100/0124 22010G20KT P6SM SKC
     FM010100 24010KT P6SM SKC
     FM010700 30005KT P6SM SKC
     FM011200 02010KT P6SM SKC=



000
FTUS42 KMHX 312321
TAFEWN
TAF
KEWN 312321Z 0100/0124 22010G20KT P6SM SKC
     FM010100 24010KT P6SM SKC
     FM010700 30005KT P6SM SKC
     FM011200 02010KT P6SM SKC=



000
FTUS42 KMHX 311720
TAFEWN
TAF
KEWN 311720Z 3118/0118 22013G23KT P6SM SKC
     FM010100 24007KT P6SM SKC
     FM010700 30006KT P6SM SKC
     FM011200 02008KT P6SM SKC=



000
FTUS42 KMHX 311720
TAFEWN
TAF
KEWN 311720Z 3118/0118 22013G23KT P6SM SKC
     FM010100 24007KT P6SM SKC
     FM010700 30006KT P6SM SKC
     FM011200 02008KT P6SM SKC=



000
FTUS42 KMHX 311124
TAFEWN
TAF
KEWN 311124Z 3112/0112 23003KT P6SM SKC
     FM311700 22013G23KT P6SM SKC
     FM010100 24007KT P6SM SKC=



000
FTUS42 KMHX 310959 AAA
TAFEWN
TAF AMD
KEWN 310959Z 3110/0106 23003KT 6SM MIFG SKC
     FM311200 23005KT P6SM SKC
     FM311700 22013G23KT P6SM SKC=



000
FTUS42 KMHX 310557 CCA
TAFEWN
TAF COR
KEWN 310557Z 3106/0106 23003KT P6SM SKC
      TEMPO 3106/3110 00000KT 1SM BR SCT007
     FM311700 22013G23KT P6SM SKC=



000
FTUS42 KMHX 310557 CCA
TAFEWN
TAF COR
KEWN 310557Z 3106/0106 23003KT P6SM SKC
      TEMPO 3106/3110 00000KT 1SM BR SCT007
     FM311700 22013G23KT P6SM SKC=



000
FTUS42 KMHX 310531
TAFEWN
TAF
KEWN 310531Z 3106/0106 23003KT P6SM SKC
     FM311700 22013G23KT P6SM SKC=



000
FTUS42 KMHX 310531
TAFEWN
TAF
KEWN 310531Z 3106/0106 23003KT P6SM SKC
     FM311700 22013G23KT P6SM SKC=



000
FTUS42 KMHX 302320
TAFEWN
TAF
KEWN 302320Z 3100/3124 VRB03KT P6SM SKC
     FM311700 22012G20KT P6SM SKC=



000
FTUS42 KMHX 302320
TAFEWN
TAF
KEWN 302320Z 3100/3124 VRB03KT P6SM SKC
     FM311700 22012G20KT P6SM SKC=



000
FTUS42 KMHX 301732
TAFEWN
TAF
KEWN 301732Z 3018/3118 25012KT P6SM SCT015 BKN050
      TEMPO 3018/3020 BKN015
     FM302300 30004KT P6SM SKC
     FM311500 23008G17KT P6SM SKC=



000
FTUS42 KMHX 301732
TAFEWN
TAF
KEWN 301732Z 3018/3118 25012KT P6SM SCT015 BKN050
      TEMPO 3018/3020 BKN015
     FM302300 30004KT P6SM SKC
     FM311500 23008G17KT P6SM SKC=



000
FTUS42 KMHX 301518 AAA
TAFEWN
TAF AMD
KEWN 301518Z 3015/3112 23012G20KT P6SM SCT050 BKN100
     FM301600 24012G21KT 6SM -SHRA SCT015 BKN050
      TEMPO 3017/3019 3SM SHRA BKN015
     FM302100 26010G18KT P6SM SCT020 BKN050
     FM310000 27004KT P6SM SKC=



000
FTUS42 KMHX 301136
TAFEWN
TAF
KEWN 301136Z 3012/3112 19007KT P6SM BKN100
     FM301800 25013G20KT 3SM SHRA BKN010 OVC030
     FM302100 26010G18KT P6SM VCSH SCT010 BKN030
     FM310000 27004KT P6SM SKC=



000
FTUS42 KMHX 301136
TAFEWN
TAF
KEWN 301136Z 3012/3112 19007KT P6SM BKN100
     FM301800 25013G20KT 3SM SHRA BKN010 OVC030
     FM302100 26010G18KT P6SM VCSH SCT010 BKN030
     FM310000 27004KT P6SM SKC=



000
FTUS42 KMHX 300553
TAFEWN
TAF
KEWN 300553Z 3006/3106 21006KT P6SM SKC
     FM301200 22010G18KT P6SM BKN100
     FM301800 25013G20KT 3SM SHRA BKN010 OVC030
     FM302100 26010G18KT P6SM VCSH SCT010 BKN030
     FM310000 27004KT P6SM SKC=



000
FTUS42 KMHX 292320
TAFEWN
TAF
KEWN 292320Z 3000/3024 VRB03KT P6SM FEW200
     FM301200 22010G18KT P6SM VCSH OVC050
     FM301700 25013G20KT P6SM -SHRA OVC010=



000
FTUS42 KMHX 292320
TAFEWN
TAF
KEWN 292320Z 3000/3024 VRB03KT P6SM FEW200
     FM301200 22010G18KT P6SM VCSH OVC050
     FM301700 25013G20KT P6SM -SHRA OVC010=



000
FTUS42 KMHX 291733
TAFEWN
TAF
KEWN 291733Z 2918/3018 32008KT P6SM SKC
     FM300000 VRB03KT P6SM SCT200
     FM301300 22010G18KT P6SM -SHRA OVC050=



000
FTUS42 KMHX 291733
TAFEWN
TAF
KEWN 291733Z 2918/3018 32008KT P6SM SKC
     FM300000 VRB03KT P6SM SCT200
     FM301300 22010G18KT P6SM -SHRA OVC050=



000
FTUS42 KMHX 291120
TAFEWN
TAF
KEWN 291120Z 2912/3012 33003KT P6SM SKC
     FM292100 28006KT P6SM SKC
     FM300100 21004KT P6SM SCT200
     FM300700 20005KT P6SM BKN070=



000
FTUS42 KMHX 291120
TAFEWN
TAF
KEWN 291120Z 2912/3012 33003KT P6SM SKC
     FM292100 28006KT P6SM SKC
     FM300100 21004KT P6SM SCT200
     FM300700 20005KT P6SM BKN070=



    US Dept of Commerce
    National Oceanic and Atmospheric Administration
    National Weather Service
    1325 East West Highway
    Silver Spring, MD 20910
    Page Author: NWS Internet Services Team
Disclaimer
Information Quality
Credits
Glossary
Privacy Policy
Freedom of Information Act (FOIA)
About Us
Career Opportunities